Time;durP1;ratioP1;P1;durP2;ratioP2;P2;SDS_P1;SDS_P2;PMS_P1;PMS_P2;Temp;Humidity;BMP_temperature;BMP_pressure;BME280_temperature;BME280_humidity;BME280_pressure;Samples;Min_cycle;Max_cycle;Signal;HPM_P1;HPM_P2
2022/09/18 00:01:32;;;;;;;4.72;1.13;;;9.50;99.90;;;8.67;100.00;98003.16;5041031;28;20064;-73
2022/09/18 00:04:03;;;;;;;6.07;0.80;;;9.60;99.90;;;8.61;100.00;98012.84;5040921;28;20048;-73
2022/09/18 00:06:34;;;;;;;5.63;0.85;;;9.60;99.90;;;8.66;100.00;98016.13;5023146;28;20049;-73
2022/09/18 00:09:05;;;;;;;4.35;0.80;;;9.60;99.90;;;8.73;100.00;98012.47;5025809;28;20052;-73
2022/09/18 00:11:38;;;;;;;6.07;0.80;;;9.60;99.90;;;8.66;100.00;98019.56;5021738;28;20049;-73
2022/09/18 00:14:08;;;;;;;5.60;0.90;;;9.60;99.90;;;8.78;100.00;98016.66;5040622;28;20055;-73
2022/09/18 00:16:36;;;;;;;4.40;0.85;;;9.70;99.90;;;8.72;100.00;98023.75;5038632;28;20060;-73
2022/09/18 00:19:04;;;;;;;5.28;0.82;;;9.70;99.90;;;8.71;100.00;98028.06;5042650;28;20155;-73
2022/09/18 00:21:31;;;;;;;7.50;0.80;;;9.70;99.90;;;8.78;100.00;98018.38;5038025;28;20422;-73
2022/09/18 00:24:00;;;;;;;5.32;0.80;;;9.70;99.90;;;8.74;100.00;98019.38;5039698;28;20065;-73
2022/09/18 00:26:27;;;;;;;6.18;0.60;;;9.60;99.90;;;8.64;100.00;98015.31;5059783;28;20529;-73
2022/09/18 00:28:56;;;;;;;8.73;0.80;;;9.60;99.90;;;8.79;100.00;98018.34;5042757;28;20048;-73
2022/09/18 00:31:28;;;;;;;6.00;1.10;;;9.60;99.90;;;8.67;100.00;98020.44;5063304;28;20055;-73
2022/09/18 00:33:59;;;;;;;4.07;0.60;;;9.70;99.90;;;8.71;100.00;98028.06;5058180;28;20049;-73
2022/09/18 00:36:28;;;;;;;7.97;1.20;;;9.70;99.90;;;8.67;100.00;98023.88;5062043;28;20053;-73
2022/09/18 00:38:58;;;;;;;2.25;0.50;;;9.70;99.90;;;8.79;100.00;98013.16;5044126;28;20879;-73
2022/09/18 00:41:36;;;;;;;3.38;0.68;;;9.70;99.90;;;8.76;100.00;98009.81;5065418;28;20517;-73
2022/09/18 00:44:36;;;;;;;5.43;0.73;;;9.70;99.90;;;8.79;100.00;98017.50;5066980;28;20052;-73
2022/09/18 00:47:09;;;;;;;3.30;0.70;;;9.70;99.90;;;8.78;100.00;98010.59;5065396;28;20047;-72
2022/09/18 00:49:42;;;;;;;;;;;9.80;99.90;;;8.84;100.00;98023.38;5066412;28;20044;-73
2022/09/18 00:52:12;;;;;;;6.85;0.60;;;9.80;99.90;;;8.79;100.00;98030.44;5067253;28;20304;-73
2022/09/18 00:54:45;;;;;;;7.07;1.60;;;9.80;99.90;;;8.82;100.00;98029.50;5047859;28;20064;-73
2022/09/18 00:57:24;;;;;;;8.20;0.90;;;9.80;99.90;;;8.82;100.00;98027.75;5067839;28;20052;-73
2022/09/18 00:59:51;;;;;;;6.47;0.88;;;9.90;99.90;;;8.92;100.00;98026.59;5050215;28;20052;-73
2022/09/18 01:02:19;;;;;;;4.95;0.93;;;9.90;99.90;;;8.90;100.00;98014.59;5050202;28;20135;-73
2022/09/18 01:04:47;;;;;;;6.30;0.88;;;9.90;99.90;;;8.91;100.00;98024.91;5050777;28;20071;-74
2022/09/18 01:07:38;;;;;;;5.45;0.85;;;9.90;99.90;;;9.01;100.00;98025.50;5066964;28;20044;-73
2022/09/18 01:10:56;;;;;;;3.38;0.77;;;9.80;99.90;;;8.90;100.00;98019.78;5068291;28;20059;-74
2022/09/18 01:13:53;;;;;;;5.22;1.00;;;9.90;99.90;;;8.89;100.00;98015.47;5064373;28;20052;-72
2022/09/18 01:16:56;;;;;;;4.80;0.80;;;9.80;99.90;;;8.88;100.00;98026.75;5037605;28;20045;-73
2022/09/18 01:19:58;;;;;;;3.87;0.80;;;9.80;99.90;;;8.88;100.00;98025.00;5067112;28;20048;-73
2022/09/18 01:22:49;;;;;;;4.60;0.60;;;9.80;99.90;;;8.87;100.00;98030.19;5048039;28;20311;-72
2022/09/18 01:25:30;;;;;;;7.55;1.10;;;9.80;99.90;;;8.90;100.00;98037.91;5058208;28;20127;-73
2022/09/18 01:28:30;;;;;;;2.90;0.60;;;9.80;99.90;;;8.85;100.00;98016.44;5033293;28;20055;-72
2022/09/18 01:31:09;;;;;;;3.38;0.65;;;9.80;99.90;;;8.91;100.00;98019.72;5029245;28;20044;-73
2022/09/18 01:33:59;;;;;;;3.28;0.80;;;9.80;99.90;;;8.92;100.00;98018.00;5031963;28;20777;-73
2022/09/18 01:36:29;;;;;;;5.78;1.00;;;9.80;99.90;;;8.91;100.00;98014.53;5029927;28;20060;-73
2022/09/18 01:39:27;;;;;;;3.65;0.75;;;9.80;99.90;;;8.82;100.00;98025.16;5010437;28;20474;-73
2022/09/18 01:41:56;;;;;;;3.92;0.80;;;9.90;99.90;;;8.79;100.00;98033.88;5017645;28;20060;-73
2022/09/18 01:44:28;;;;;;;4.30;0.73;;;9.90;99.90;;;8.76;100.00;98033.13;5046163;28;20068;-73
2022/09/18 01:46:57;;;;;;;4.43;0.73;;;9.90;99.90;;;8.76;100.00;98035.72;5027938;28;20069;-73
2022/09/18 01:49:31;;;;;;;3.03;0.80;;;9.90;99.90;;;8.76;100.00;98023.59;5027373;28;20048;-72
2022/09/18 01:52:14;;;;;;;2.90;0.70;;;9.90;99.90;;;8.83;100.00;98020.84;5028724;28;20049;-73
2022/09/18 01:54:44;;;;;;;14.27;1.00;;;9.80;99.90;;;8.72;100.00;98029.75;5025784;28;20060;-73
2022/09/18 01:57:45;;;;;;;4.07;0.90;;;9.70;99.90;;;8.81;100.00;98036.41;5047637;28;20049;-73
2022/09/18 02:00:13;;;;;;;5.63;0.80;;;9.80;99.90;;;8.91;100.00;98035.25;5033334;28;20049;-73
2022/09/18 02:02:50;;;;;;;6.45;2.05;;;9.70;99.90;;;8.85;100.00;98048.38;5027631;28;20544;-73
2022/09/18 02:05:27;;;;;;;3.08;0.80;;;9.70;99.90;;;8.86;100.00;98042.31;5029929;28;20057;-73
2022/09/18 02:08:25;;;;;;;4.13;0.60;;;9.70;99.90;;;8.79;100.00;98020.09;5044676;28;20068;-72
2022/09/18 02:11:06;;;;;;;5.15;0.98;;;9.70;99.90;;;8.73;100.00;98015.06;5030184;28;20044;-72
2022/09/18 02:14:04;;;;;;;7.57;0.73;;;9.70;99.90;;;8.72;100.00;98022.00;5032625;28;20341;-74
2022/09/18 02:16:41;;;;;;;5.55;0.90;;;9.80;99.90;;;8.71;100.00;98016.84;5041465;28;20080;-73
2022/09/18 02:19:19;;;;;;;5.88;0.60;;;9.70;99.90;;;8.76;100.00;98018.44;5028543;28;20056;-73
2022/09/18 02:21:48;;;;;;;6.60;0.70;;;9.80;99.90;;;8.81;100.00;98007.94;5050711;28;20143;-74
2022/09/18 02:24:19;;;;;;;2.78;0.60;;;9.80;99.90;;;8.77;100.00;98014.09;5045244;28;20059;-73
2022/09/18 02:26:50;;;;;;;2.63;0.77;;;9.80;99.90;;;8.79;100.00;98012.31;5047894;28;20067;-73
2022/09/18 02:29:19;;;;;;;2.90;0.75;;;9.80;99.90;;;8.76;100.00;98022.75;5050991;28;20051;-72
2022/09/18 02:31:47;;;;;;;5.95;0.93;;;9.80;99.90;;;8.81;100.00;98026.06;5046771;28;20524;-73
2022/09/18 02:34:16;;;;;;;4.25;0.82;;;9.80;99.90;;;8.85;100.00;98022.50;5064013;28;20087;-72
2022/09/18 02:37:10;;;;;;;3.70;0.70;;;9.80;99.90;;;8.99;100.00;98024.69;5045377;28;20444;-74
2022/09/18 02:40:20;;;;;;;3.22;0.70;;;9.80;99.90;;;9.03;100.00;98023.69;5066475;28;20781;-73
2022/09/18 02:43:12;;;;;;;3.05;0.70;;;9.80;99.90;;;9.08;100.00;98024.41;5061833;28;20079;-73
2022/09/18 02:46:18;;;;;;;3.72;0.85;;;9.90;99.90;;;8.96;100.00;98029.94;5064436;28;20052;-73
2022/09/18 02:49:06;;;;;;;5.63;1.15;;;9.90;99.90;;;9.06;100.00;98018.44;5063308;28;20139;-73
2022/09/18 02:52:07;;;;;;;5.13;0.80;;;9.90;99.90;;;8.99;100.00;98035.88;5061430;28;20398;-73
2022/09/18 02:54:49;;;;;;;5.90;0.70;;;9.90;99.90;;;9.02;100.00;98026.34;5042861;28;20056;-73
2022/09/18 02:57:27;;;;;;;4.60;0.65;;;9.90;99.90;;;9.09;100.00;98026.09;5048193;28;20536;-72
2022/09/18 02:59:58;;;;;;;5.50;0.90;;;9.90;99.90;;;8.94;100.00;98034.31;5064401;28;20061;-72
2022/09/18 03:02:25;;;;;;;4.15;1.20;;;9.90;99.90;;;8.85;100.00;98025.09;5063485;28;20052;-73
2022/09/18 03:04:52;;;;;;;7.85;1.23;;;9.90;99.90;;;8.88;100.00;98026.75;5062013;28;20568;-73
2022/09/18 03:07:19;;;;;;;6.22;0.80;;;10.00;99.90;;;8.95;100.00;98030.84;5063403;28;20040;-72
2022/09/18 03:09:46;;;;;;;1.65;0.68;;;9.90;99.90;;;8.82;100.00;98027.75;5064297;28;20044;-73
2022/09/18 03:12:13;;;;;;;5.50;0.93;;;9.90;99.90;;;8.89;100.00;98031.00;5062780;28;20036;-73
2022/09/18 03:14:40;;;;;;;6.38;1.10;;;9.90;99.90;;;8.83;100.00;98029.47;5062915;28;20052;-73
2022/09/18 03:17:09;;;;;;;4.47;0.90;;;9.90;99.90;;;8.95;100.00;98020.50;5059793;28;20132;-73
2022/09/18 03:19:35;;;;;;;3.53;1.17;;;9.90;99.90;;;9.00;100.00;98027.22;5065120;28;20127;-72
2022/09/18 03:22:02;;;;;;;9.77;1.50;;;9.90;99.90;;;8.90;100.00;98019.78;5064371;28;20048;-73
2022/09/18 03:24:29;;;;;;;7.05;1.10;;;9.90;99.90;;;8.89;100.00;98024.09;5036754;28;20052;-73
2022/09/18 03:26:56;;;;;;;9.93;1.50;;;9.80;99.90;;;8.82;100.00;98011.38;5042549;28;20159;-73
2022/09/18 03:29:26;;;;;;;5.22;1.10;;;9.80;99.90;;;8.82;100.00;98019.97;5046516;28;20053;-73
2022/09/18 03:31:53;;;;;;;9.55;1.25;;;9.90;99.90;;;8.77;100.00;98012.34;5044223;28;20047;-73
2022/09/18 03:34:21;;;;;;;5.93;1.20;;;9.90;99.90;;;8.88;100.00;98027.59;5026874;28;20063;-73
2022/09/18 03:36:47;;;;;;;6.25;1.58;;;9.90;99.90;;;8.79;100.00;98022.66;5044132;28;20186;-73
2022/09/18 03:39:14;;;;;;;7.53;1.73;;;9.90;99.90;;;8.87;100.00;98028.50;5045316;28;20401;-72
2022/09/18 03:41:42;;;;;;;6.07;1.25;;;9.80;99.90;;;8.84;100.00;98022.53;5041750;28;20057;-74
2022/09/18 03:44:09;;;;;;;4.78;1.45;;;9.90;99.90;;;8.84;100.00;98036.31;5043178;28;20071;-73
2022/09/18 03:46:35;;;;;;;9.48;1.80;;;9.90;99.90;;;8.91;100.00;98024.91;5061135;28;20071;-73
2022/09/18 03:49:02;;;;;;;7.85;1.48;;;9.90;99.90;;;8.89;100.00;98033.59;5041247;28;20052;-73
2022/09/18 03:51:29;;;;;;;15.60;1.73;;;9.90;99.90;;;9.01;100.00;98035.84;5044346;28;20398;-74
2022/09/18 03:53:57;;;;;;;7.68;1.38;;;9.90;99.90;;;8.86;100.00;98028.53;5042261;28;20048;-73
2022/09/18 03:56:24;;;;;;;6.85;1.20;;;9.90;99.90;;;8.95;100.00;98034.28;5046793;28;20056;-73
2022/09/18 03:58:52;;;;;;;5.10;1.50;;;9.90;99.90;;;8.89;100.00;98041.38;5044252;28;20057;-73
2022/09/18 04:01:19;;;;;;;7.85;1.42;;;9.90;99.90;;;8.91;100.00;98045.59;5043887;28;20052;-73
2022/09/18 04:03:46;;;;;;;10.02;1.60;;;9.90;99.90;;;8.89;100.00;98039.63;5045064;28;20053;-73
2022/09/18 04:06:13;;;;;;;7.22;1.30;;;9.90;99.90;;;8.77;100.00;98053.75;5026308;28;20063;-72
2022/09/18 04:08:40;;;;;;;4.90;1.23;;;9.90;99.90;;;8.93;100.00;98040.41;5043329;28;20048;-73
2022/09/18 04:11:07;;;;;;;10.15;1.80;;;9.80;99.90;;;8.79;100.00;98038.19;5044706;28;20151;-73
2022/09/18 04:13:34;;;;;;;4.72;1.23;;;9.90;99.90;;;8.85;100.00;98050.97;5044966;28;20450;-73
2022/09/18 04:16:01;;;;;;;9.10;1.58;;;9.90;99.90;;;8.81;100.00;98043.34;5031235;28;20048;-72
2022/09/18 04:18:29;;;;;;;5.93;1.35;;;9.80;99.90;;;8.82;100.00;98043.28;5047072;28;20688;-73
2022/09/18 04:20:56;;;;;;;6.30;1.20;;;9.80;99.90;;;8.84;100.00;98044.09;5047826;28;20497;-73
2022/09/18 04:23:26;;;;;;;12.63;1.38;;;9.80;99.90;;;8.87;100.00;98050.91;5024295;28;20045;-74
2022/09/18 04:25:53;;;;;;;11.23;1.50;;;9.80;99.90;;;8.76;100.00;98046.06;5042993;28;20139;-73
2022/09/18 04:28:20;;;;;;;6.68;1.42;;;9.80;99.90;;;8.87;100.00;98059.56;5049461;28;20060;-73
2022/09/18 04:30:48;;;;;;;4.45;1.15;;;9.80;99.90;;;8.95;100.00;98061.91;5049471;28;20099;-68
2022/09/18 04:33:15;;;;;;;7.50;1.23;;;9.80;99.90;;;8.86;100.00;98051.81;5048526;28;20044;-68
2022/09/18 04:35:42;;;;;;;4.38;0.98;;;9.80;99.90;;;8.77;100.00;98051.16;5047775;28;20045;-68
2022/09/18 04:38:14;;;;;;;3.95;1.10;;;9.80;99.90;;;8.78;100.00;98050.28;5049530;28;20067;-68
2022/09/18 04:40:41;;;;;;;10.57;1.77;;;9.80;99.90;;;8.75;100.00;98050.38;5048821;28;20143;-68
2022/09/18 04:43:10;;;;;;;9.13;1.40;;;9.80;99.90;;;8.75;100.00;98041.75;5049367;28;20041;-68
2022/09/18 04:45:37;;;;;;;8.38;1.13;;;9.80;99.90;;;8.65;100.00;98040.34;5047725;28;20402;-68
2022/09/18 04:48:04;;;;;;;8.70;1.65;;;9.70;99.90;;;8.76;100.00;98043.47;5032539;28;20071;-68
2022/09/18 04:50:31;;;;;;;12.25;1.67;;;9.60;99.90;;;8.50;100.00;98050.19;5046780;28;20052;-68
2022/09/18 04:53:01;;;;;;;8.73;1.40;;;9.50;99.90;;;8.55;100.00;98052.66;5048995;28;20045;-68
2022/09/18 04:55:28;;;;;;;8.60;1.40;;;9.50;99.90;;;8.58;100.00;98056.00;5047956;28;20064;-68
2022/09/18 04:57:55;;;;;;;7.97;1.60;;;9.50;99.90;;;8.68;100.00;98060.94;5045102;28;20724;-68
2022/09/18 05:00:22;;;;;;;9.48;1.83;;;9.60;99.90;;;8.77;100.00;98052.91;5046956;28;20155;-68
2022/09/18 05:02:49;;;;;;;6.30;1.63;;;9.60;99.90;;;8.57;100.00;98050.88;5046173;28;20049;-68
2022/09/18 05:05:16;;;;;;;9.40;1.70;;;9.60;99.90;;;8.58;100.00;98050.00;5049655;28;20044;-68
2022/09/18 05:07:43;;;;;;;9.45;1.70;;;9.60;99.90;;;8.55;100.00;98058.69;5048275;28;20048;-69
2022/09/18 05:10:09;;;;;;;7.78;1.70;;;9.60;99.90;;;8.52;100.00;98048.41;5047047;28;20179;-68
2022/09/18 05:12:40;;;;;;;7.32;1.60;;;9.60;99.90;;;8.54;100.00;98056.13;5048992;28;20502;-68
2022/09/18 05:15:07;;;;;;;5.03;1.52;;;9.60;99.90;;;8.60;100.00;98055.97;5046871;28;20056;-68
2022/09/18 05:17:34;;;;;;;12.27;1.90;;;9.50;99.90;;;8.49;100.00;98052.81;5047050;28;20072;-68
2022/09/18 05:20:01;;;;;;;6.53;1.58;;;9.50;99.90;;;8.58;100.00;98057.75;5048693;28;20045;-68
2022/09/18 05:22:29;;;;;;;5.57;1.17;;;9.50;99.90;;;8.53;100.00;98057.88;5048172;28;20045;-68
2022/09/18 05:24:56;;;;;;;6.55;1.40;;;9.50;99.90;;;8.49;100.00;98058.00;5044720;28;20064;-68
2022/09/18 05:27:23;;;;;;;8.00;1.30;;;9.50;99.90;;;8.51;100.00;98056.22;5050220;28;20044;-68
2022/09/18 05:29:52;;;;;;;5.70;1.23;;;9.50;99.90;;;8.52;100.00;98065.66;5044429;28;20071;-69
2022/09/18 05:32:19;;;;;;;4.55;1.42;;;9.50;99.90;;;8.56;100.00;98068.13;5049079;28;20049;-69
2022/09/18 05:34:50;;;;;;;6.82;1.15;;;9.40;99.90;;;8.61;100.00;98075.78;5026304;28;20525;-68
2022/09/18 05:37:18;;;;;;;9.45;1.40;;;9.40;99.90;;;8.55;100.00;98076.81;5048535;28;20465;-68
2022/09/18 05:39:45;;;;;;;6.28;1.60;;;9.40;99.90;;;8.58;100.00;98073.28;5049412;28;20426;-73
2022/09/18 05:42:12;;;;;;;6.22;1.02;;;9.50;99.90;;;8.44;100.00;98076.25;5046940;28;20064;-73
2022/09/18 05:44:38;;;;;;;8.27;1.80;;;9.50;99.90;;;8.45;100.00;98070.16;5041510;28;20106;-73
2022/09/18 05:47:05;;;;;;;8.07;1.17;;;9.50;99.90;;;8.51;100.00;98074.34;5045487;28;20079;-73
2022/09/18 05:49:32;;;;;;;5.10;1.42;;;9.60;99.90;;;8.56;100.00;98081.06;5047930;28;20040;-73
2022/09/18 05:51:59;;;;;;;4.75;1.40;;;9.60;99.90;;;8.69;100.00;98071.25;5045801;28;20053;-73
2022/09/18 05:54:26;;;;;;;7.63;1.40;;;9.60;99.90;;;8.46;100.00;98078.75;5048748;28;20061;-73
2022/09/18 05:56:53;;;;;;;4.55;1.42;;;9.60;99.90;;;8.58;100.00;98075.88;5057238;28;20049;-73
2022/09/18 05:59:20;;;;;;;7.40;1.17;;;9.70;99.90;;;8.64;100.00;98080.84;5044636;28;20069;-73
2022/09/18 06:01:47;;;;;;;6.28;1.30;;;9.70;99.90;;;8.68;100.00;98087.66;5051814;28;20045;-74
2022/09/18 06:04:13;;;;;;;6.82;1.20;;;9.70;99.90;;;8.77;100.00;98087.41;5045198;28;20072;-73
2022/09/18 06:06:40;;;;;;;6.93;1.30;;;9.80;99.90;;;8.89;100.00;98078.44;5048110;28;20118;-72
2022/09/18 06:09:07;;;;;;;8.90;1.30;;;9.90;99.90;;;8.96;100.00;98085.19;5047364;28;20060;-73
2022/09/18 06:11:34;;;;;;;5.38;1.05;;;9.90;99.90;;;8.97;100.00;98083.44;5049607;28;20150;-74
2022/09/18 06:14:01;;;;;;;4.20;0.93;;;9.90;99.90;;;8.75;100.00;98083.16;5047762;28;20048;-73
2022/09/18 06:16:28;;;;;;;8.73;1.50;;;9.90;99.90;;;8.81;100.00;98084.75;5048662;28;20053;-73
2022/09/18 06:18:55;;;;;;;3.95;1.02;;;9.90;99.90;;;8.88;100.00;98094.03;5047102;28;20056;-73
2022/09/18 06:21:21;;;;;;;9.32;1.42;;;9.90;99.90;;;8.82;100.00;98084.69;5046925;28;20033;-69
2022/09/18 06:23:48;;;;;;;5.75;1.55;;;9.90;99.90;;;8.77;100.00;98077.06;5042886;28;20673;-69
2022/09/18 06:26:15;;;;;;;8.02;1.38;;;9.90;99.90;;;8.96;100.00;98085.19;5050504;28;20508;-73
2022/09/18 06:28:43;;;;;;;6.60;1.38;;;9.90;99.90;;;8.81;100.00;98077.00;5046678;28;20045;-73
2022/09/18 06:31:09;;;;;;;7.15;1.88;;;9.90;99.90;;;8.76;100.00;98077.13;5064917;28;20131;-69
2022/09/18 06:33:36;;;;;;;5.32;1.40;;;10.00;99.90;;;9.05;100.00;98085.81;5043428;28;20083;-69
2022/09/18 06:36:07;;;;;;;10.68;1.60;;;10.10;99.90;;;9.11;100.00;98083.03;5044662;28;20045;-68
2022/09/18 06:38:34;;;;;;;5.40;1.17;;;10.10;99.90;;;9.00;100.00;98072.97;5049393;28;20064;-68
2022/09/18 06:41:01;;;;;;;9.88;1.60;;;10.10;99.90;;;8.95;100.00;98075.69;5045693;28;20852;-70
2022/09/18 06:43:28;;;;;;;6.32;1.20;;;10.10;99.90;;;8.76;100.00;98080.56;5046357;28;20497;-70
2022/09/18 06:45:57;;;;;;;7.50;1.60;;;10.00;99.90;;;8.78;100.00;98078.78;5043530;28;20052;-70
2022/09/18 06:48:24;;;;;;;4.82;1.45;;;10.10;99.90;;;8.93;100.00;98077.47;5048922;28;20102;-70
2022/09/18 06:50:57;;;;;;;7.70;1.67;;;10.10;99.90;;;8.83;100.00;98082.97;5047608;28;20041;-69
2022/09/18 06:53:25;;;;;;;9.15;1.85;;;10.10;99.90;;;8.78;100.00;98077.91;5045063;28;20053;-70
2022/09/18 06:55:57;;;;;;;4.38;1.33;;;10.00;99.90;;;9.02;100.00;98078.97;5041944;28;20041;-70
2022/09/18 06:58:24;;;;;;;9.48;2.42;;;10.00;99.90;;;8.72;100.00;98063.41;5043149;28;20152;-70
2022/09/18 07:00:51;;;;;;;8.63;1.83;;;10.10;99.90;;;9.04;100.00;98082.38;5048221;28;20060;-70
2022/09/18 07:03:18;;;;;;;14.70;1.83;;;10.10;99.90;;;9.17;100.00;98093.25;5007382;28;20082;-69
2022/09/18 07:05:45;;;;;;;7.88;1.58;;;10.30;99.90;;;9.15;100.00;98082.06;5046850;28;20053;-70
2022/09/18 07:08:12;;;;;;;7.30;1.35;;;10.40;99.90;;;9.16;100.00;98065.63;5048077;28;20045;-70
2022/09/18 07:10:40;;;;;;;10.48;1.75;;;10.50;99.90;;;9.03;100.00;98075.47;5057014;28;20049;-70
2022/09/18 07:13:07;;;;;;;9.30;1.50;;;10.50;99.90;;;9.31;100.00;98069.53;5045888;28;20053;-70
2022/09/18 07:15:35;;;;;;;7.30;1.80;;;10.60;99.90;;;9.53;100.00;98072.28;5028372;28;20151;-70
2022/09/18 07:18:03;;;;;;;7.57;1.45;;;10.70;99.90;;;9.35;100.00;98064.19;5047017;28;20343;-70
2022/09/18 07:20:30;;;;;;;8.32;1.70;;;10.70;99.90;;;9.37;100.00;98077.09;5028990;28;20080;-70
2022/09/18 07:23:00;;;;;;;8.82;1.85;;;10.80;99.90;;;9.43;100.00;98069.97;5040716;28;20068;-67
2022/09/18 07:25:30;;;;;;;5.97;1.50;;;10.80;99.90;;;9.49;100.00;98063.78;5047739;28;20558;-67
2022/09/18 07:28:08;;;;;;;6.47;2.47;;;10.80;99.90;;;9.34;100.00;98049.53;5058894;28;20544;-70
2022/09/18 07:30:37;;;;;;;10.13;1.67;;;10.80;99.90;;;9.43;100.00;98051.84;5043131;28;20525;-70
2022/09/18 07:33:07;;;;;;;7.53;1.42;;;10.80;99.90;;;9.40;100.00;98064.91;5044383;28;20053;-70
2022/09/18 07:35:35;;;;;;;6.35;1.30;;;10.90;99.90;;;9.48;100.00;98063.81;5044576;28;20048;-69
2022/09/18 07:38:04;;;;;;;5.95;1.35;;;10.90;99.90;;;9.63;100.00;98059.00;5045297;28;20144;-70
2022/09/18 07:40:32;;;;;;;6.75;1.35;;;10.80;99.90;;;9.44;100.00;98063.06;5021975;28;20056;-70
2022/09/18 07:43:06;;;;;;;12.48;1.55;;;10.80;99.90;;;9.50;100.00;98060.28;5043103;28;20340;-69
2022/09/18 07:45:34;;;;;;;4.88;1.40;;;10.90;99.90;;;9.34;100.00;98053.88;5041040;28;20479;-69
2022/09/18 07:48:04;;;;;;;8.52;1.58;;;11.00;99.90;;;9.61;100.00;98052.19;5041154;28;20067;-69
2022/09/18 07:50:31;;;;;;;9.07;1.73;;;11.00;99.90;;;9.99;100.00;98050.97;5041844;28;20049;-69
2022/09/18 07:53:01;;;;;;;7.72;1.58;;;11.10;99.90;;;10.11;100.00;98031.56;5023712;28;20045;-69
2022/09/18 07:55:28;;;;;;;7.47;1.45;;;11.30;99.90;;;9.90;100.00;98032.25;5042362;28;20049;-69
2022/09/18 07:58:03;;;;;;;10.30;2.08;;;11.40;99.90;;;10.54;100.00;98031.88;5041953;28;20045;-69
2022/09/18 08:00:34;;;;;;;10.40;1.92;;;11.80;99.90;;;10.50;100.00;98025.94;5042878;28;20053;-69
2022/09/18 08:03:02;;;;;;;6.25;0.85;;;12.00;99.90;;;10.49;100.00;98016.47;5042019;28;20064;-69
2022/09/18 08:05:29;;;;;;;6.75;1.05;;;12.10;99.90;;;10.78;100.00;97996.38;5044476;28;20148;-70
2022/09/18 08:08:05;;;;;;;7.55;1.10;;;12.30;99.90;;;11.16;100.00;97976.78;5042049;28;20056;-70
2022/09/18 08:10:33;;;;;;;5.07;1.13;;;;;;;11.23;100.00;97962.63;5046221;28;20045;-70
2022/09/18 08:13:01;;;;;;;5.65;0.85;;;12.80;99.90;;;11.17;100.00;97943.84;5043425;28;20075;-70
2022/09/18 08:15:30;;;;;;;6.57;1.10;;;13.00;99.90;;;11.22;100.00;97957.47;5040187;28;20056;-70
2022/09/18 08:17:57;;;;;;;10.48;1.10;;;13.10;99.90;;;11.20;100.00;97926.38;5057368;28;20053;-70
2022/09/18 08:20:24;;;;;;;8.05;1.15;;;13.00;99.90;;;10.91;100.00;97921.47;5043120;28;20061;-70
2022/09/18 08:22:54;;;;;;;5.18;1.13;;;12.80;99.90;;;10.88;100.00;97910.28;5057544;28;20493;-70
2022/09/18 08:25:22;;;;;;;8.90;1.33;;;12.70;99.90;;;11.19;100.00;97905.66;5072182;28;20049;-70
2022/09/18 08:27:48;;;;;;;5.80;1.50;;;12.90;99.90;;;11.57;100.00;97892.84;5041698;28;20148;-70
2022/09/18 08:30:16;;;;;;;6.10;1.63;;;13.00;99.90;;;12.17;100.00;97875.56;5045066;28;20060;-67
2022/09/18 08:32:43;;;;;;;5.55;1.40;;;13.10;99.90;;;11.51;100.00;97865.34;5060303;28;20041;-70
2022/09/18 08:35:10;;;;;;;7.95;1.17;;;13.30;99.90;;;11.19;100.00;97864.91;5044944;28;20053;-70
2022/09/18 08:37:37;;;;;;;6.32;1.17;;;12.90;99.90;;;11.26;100.00;97862.91;5041318;28;20425;-69
2022/09/18 08:40:04;;;;;;;7.72;1.13;;;13.00;99.90;;;11.38;100.00;97870.22;5043522;28;20057;-68
2022/09/18 08:42:50;;;;;;;6.82;1.13;;;13.20;99.90;;;11.64;100.00;97855.28;5044298;28;20816;-70
2022/09/18 08:45:17;;;;;;;9.32;0.93;;;13.50;99.90;;;11.67;100.00;97857.75;5039951;28;20041;-70
2022/09/18 08:47:58;;;;;;;4.53;0.90;;;13.50;99.90;;;12.16;100.00;97852.19;5044910;28;20522;-70
2022/09/18 08:50:36;;;;;;;7.45;1.58;;;13.60;99.90;;;11.84;100.00;97857.03;5041787;28;21015;-70
2022/09/18 08:53:24;;;;;;;5.32;1.20;;;13.70;99.90;;;11.99;100.00;97852.94;5040512;28;20049;-69
2022/09/18 08:55:53;;;;;;;5.20;1.13;;;13.80;99.90;;;12.02;100.00;97842.41;5040565;28;20132;-70
2022/09/18 08:58:43;;;;;;;6.72;1.13;;;13.80;99.90;;;11.57;100.00;97836.50;5039754;28;20056;-70
2022/09/18 09:01:18;;;;;;;7.82;2.35;;;13.70;99.90;;;11.69;100.00;97828.16;5043443;28;20060;-70
2022/09/18 09:03:48;;;;;;;5.55;1.10;;;13.60;99.90;;;11.53;100.00;97824.53;5048079;28;20433;-69
2022/09/18 09:06:56;;;;;;;6.30;1.30;;;13.50;99.90;;;11.76;100.00;97830.50;5043175;28;20060;-69
2022/09/18 09:09:59;;;;;;;8.75;3.42;;;13.40;99.90;;;11.68;100.00;97839.50;5040071;28;20066;-70
2022/09/18 09:12:54;;;;;;;6.65;1.10;;;13.30;99.90;;;11.74;100.00;97835.75;5044654;28;20052;-69
2022/09/18 09:16:04;;;;;;;4.95;1.20;;;13.50;99.90;;;12.05;100.00;97830.09;5044955;28;20060;-69
2022/09/18 09:18:45;;;;;;;9.68;2.30;;;13.50;99.90;;;12.28;100.00;97815.22;5048739;28;20052;-69
2022/09/18 09:21:21;;;;;;;8.75;2.60;;;13.60;99.90;;;12.41;100.00;97818.94;5045650;28;20049;-69
2022/09/18 09:24:20;;;;;;;5.20;1.27;;;13.80;99.90;;;12.58;100.00;97827.72;5056176;28;20064;-69
2022/09/18 09:26:48;;;;;;;6.57;1.00;;;14.20;99.90;;;12.55;100.00;97805.28;5059359;28;20406;-69
2022/09/18 09:29:39;;;;;;;4.45;0.70;;;14.40;99.90;;;12.51;100.00;97794.16;5046033;28;20060;-69
2022/09/18 09:32:21;;;;;;;5.57;0.85;;;14.50;99.90;;;12.87;100.00;97788.13;5038801;28;20418;-69
2022/09/18 09:34:59;;;;;;;4.85;0.80;;;14.50;99.90;;;12.63;100.00;97782.31;5044517;28;20041;-69
2022/09/18 09:37:38;;;;;;;6.07;0.90;;;14.70;99.90;;;12.80;100.00;97781.53;5043399;28;20059;-70
2022/09/18 09:40:24;;;;;;;5.97;1.42;;;14.80;99.90;;;12.74;100.00;97774.00;5039822;28;20148;-70
2022/09/18 09:43:05;;;;;;;5.57;1.13;;;14.60;99.90;;;12.72;100.00;97761.03;5038357;28;20132;-70
2022/09/18 09:45:46;;;;;;;6.05;1.15;;;14.60;99.90;;;13.08;100.00;97743.69;5042903;28;20055;-69
2022/09/18 09:48:28;;;;;;;5.32;0.75;;;14.80;99.90;;;12.91;100.00;97749.75;5057726;28;20041;-70
2022/09/18 09:51:04;;;;;;;3.78;0.85;;;14.90;99.90;;;12.73;100.00;97741.91;5046004;28;20053;-70
2022/09/18 09:53:31;;;;;;;4.18;0.90;;;15.00;99.90;;;12.95;100.00;97736.50;5043200;28;20041;-70
2022/09/18 09:56:23;;;;;;;8.55;1.10;;;15.00;99.90;;;12.82;100.00;97734.53;5043403;28;20055;-70
2022/09/18 09:59:14;;;;;;;3.42;0.60;;;14.90;99.90;;;12.85;100.00;97732.66;5044396;28;20053;-70
2022/09/18 10:02:32;;;;;;;6.53;0.80;;;14.80;99.90;;;12.63;100.00;97737.22;5041731;28;20406;-70
2022/09/18 10:05:28;;;;;;;8.65;1.48;;;14.60;99.90;;;12.42;100.00;97742.53;5042333;28;20371;-70
2022/09/18 10:08:13;;;;;;;4.53;0.80;;;14.50;99.90;;;12.44;100.00;97742.47;5039671;28;20037;-69
2022/09/18 10:10:55;;;;;;;4.95;0.80;;;14.40;99.90;;;12.44;100.00;97747.69;5040538;28;20383;-70
2022/09/18 10:13:35;;;;;;;6.72;0.90;;;14.30;99.90;;;12.56;100.00;97737.50;5036159;28;20690;-70
2022/09/18 10:16:10;;;;;;;6.05;0.80;;;14.30;99.90;;;12.56;100.00;97737.50;5041994;28;20044;-70
2022/09/18 10:18:43;;;;;;;5.03;0.70;;;14.30;99.90;;;12.43;100.00;97733.81;5052605;28;20053;-67
2022/09/18 10:21:12;;;;;;;6.45;0.70;;;14.40;99.90;;;12.75;100.00;97729.66;5042814;28;20048;-68
2022/09/18 10:23:48;;;;;;;6.60;1.13;;;14.40;99.90;;;12.94;100.00;97720.94;5044252;28;20071;-68
2022/09/18 10:26:35;;;;;;;6.35;1.15;;;14.40;99.90;;;12.51;100.00;97742.09;5059369;28;20061;-68
2022/09/18 10:29:02;;;;;;;4.45;0.80;;;14.50;99.90;;;12.84;100.00;97728.38;5043021;28;20372;-67
2022/09/18 10:31:52;;;;;;;3.25;0.70;;;14.60;99.90;;;13.15;100.00;97725.06;5041621;28;21044;-68
2022/09/18 10:34:47;;;;;;;4.60;0.93;;;14.80;99.90;;;13.00;100.00;97710.22;5044579;28;20048;-68
2022/09/18 10:37:38;;;;;;;3.22;1.00;;;14.80;99.90;;;12.81;100.00;97712.88;5043009;28;20465;-68
2022/09/18 10:40:28;;;;;;;3.25;0.90;;;14.90;99.90;;;12.69;100.00;97735.16;5055776;28;20445;-67
2022/09/18 10:42:55;;;;;;;7.15;1.00;;;15.00;99.90;;;13.01;100.00;97716.25;5046336;28;20588;-68
2022/09/18 10:45:27;;;;;;;5.00;1.27;;;15.00;99.90;;;12.68;100.00;97707.44;5040168;28;20044;-68
2022/09/18 10:48:19;;;;;;;3.50;0.88;;;14.70;99.90;;;12.83;100.00;97725.84;5057882;28;20057;-67
2022/09/18 10:51:01;;;;;;;3.20;0.73;;;14.70;99.90;;;12.61;100.00;97713.84;5039049;28;20064;-68